Mount Rainier National Park, WA

7:18 PM PDT on September 02, 2014 (GMT -0700)
Stampede Pass | Change Station
CLOSE
Current Station
Airport
Location: Stampede Pass,
Elevation: 3967 ft
Nearby Weather Stations

Elev 3967 ft 47.28 °N, 121.34 °W | Updated 1 hour ago

Light Rain
Light Rain Fog
48 °F
Feels Like 48 °F
N
8
Wind Variable Wind from West
Gusts 25 mph

Today
High -- | Low -- °F
--% Chance of Precip.
Yesterday
High -- | Low -- °F
Precip. -- in
6:28 AM 7:44 PM
First Quarter, 57% visible
Pressure 29.82 in
Visibility 0.2 miles
Clouds
Dew Point 45 °F
Humidity 89%
Rainfall 0.08 in
Snow Depth 0 in , 0 in
UV Not available.
Pollen 2.50 out of 12
Air Quality Not available.
Flu Activity Not available.
METAR KSMP 030056Z AUTO 28007G22KT 170V360 1/4SM -RA FG VV002 09/07 A2983 RMK AO2 SLP096 P0008 T00890072 $

More Conditions Fewer Conditions

Pressure 29.82 in
Visibility 0.2 miles
Clouds
Dew Point 45 °F
Humidity 89%
Rainfall 0.08 in
Snow Depth 0 in , 0 in
UV Not available.
Pollen 2.50 out of 12
Air Quality Not available.
Flu Activity Not available.
METAR KSMP 030056Z AUTO 28007G22KT 170V360 1/4SM -RA FG VV002 09/07 A2983 RMK AO2 SLP096 P0008 T00890072 $

More Conditions Fewer Conditions

10-Day Weather Forecast

Almanac

Astronomy

Sep. 02, 2014 Rise Set
Actual Time 6:28 AM PDT 7:44 PM PDT
Civil Twilight 5:57 AM PDT 8:15 PM PDT
Nautical Twilight 5:19 AM PDT 8:53 PM PDT
Astronomical Twilight 4:39 AM PDT 9:33 PM PDT
Moon 2:44 PM PDT (9/2) No Moon Set
Length of Visible Light 14h 18m
Length of Day
13h 15m
Tomorrow will be 3m 14s shorter.
First Quarter, 57% of the Moon is Illuminated
Today
First Quarter
Sep 8
Full
Sep 15
Last Quarter
Sep 24
New
Oct 1
First Quarter

Today's Extremes

State Highs State Lows

Community

WunderPhotos

Upload Photos

1,749,841 photos uploaded!

Nearby

Snow Depth

Station Depth Elevation
Burnt Mountain 0 in 4200 ft
Morse Lake 0 in 5400 ft
Pigtail Peak 0 in 5900 ft
Lone Pine 0 in 3800 ft
Potato Hill 0 in 4500 ft

Earthquake Activity

City Distance Mag. Time & Date
No recent earthquake activity has been reported nearby.
Minimum magnitude displayed is 2.5.

Coastal Water Temperatures

Place Temperature
No Stations Reporting

Nearby Weather Stations